createdAt,value
2019-05-25T00:00:10.447Z,41.32
2019-05-25T00:00:35.616Z,41.62
2019-05-25T00:01:00.879Z,41.27
2019-05-25T00:01:26.466Z,41.44
2019-05-25T00:01:51.743Z,41.31
2019-05-25T00:02:16.361Z,41.42
2019-05-25T00:02:41.605Z,41.58
2019-05-25T00:03:06.942Z,41.46
2019-05-25T00:03:32.252Z,41.55
2019-05-25T00:03:57.534Z,41.82
2019-05-25T00:04:22.201Z,41.39
2019-05-25T00:04:47.454Z,41.55
2019-05-25T00:05:12.736Z,41.55
2019-05-25T00:05:37.939Z,41.84
2019-05-25T00:06:03.145Z,41.36
2019-05-25T00:06:27.809Z,41.72
2019-05-25T00:06:53.017Z,41.54
2019-05-25T00:07:18.250Z,41.56
2019-05-25T00:07:43.538Z,41.69
2019-05-25T00:08:08.761Z,41.40
2019-05-25T00:08:34.258Z,41.35
2019-05-25T00:08:59.508Z,41.46
2019-05-25T00:09:24.798Z,41.57
2019-05-25T00:09:49.993Z,41.70
2019-05-25T00:10:14.658Z,41.71
2019-05-25T00:10:39.869Z,41.43
2019-05-25T00:11:05.112Z,41.62
2019-05-25T00:11:30.338Z,41.76
2019-05-25T00:11:55.686Z,41.46
2019-05-25T00:12:20.388Z,41.21
2019-05-25T00:12:45.644Z,41.62
2019-05-25T00:13:10.830Z,41.34
2019-05-25T00:13:36.041Z,41.67
2019-05-25T00:14:01.702Z,41.97
2019-05-25T00:14:26.336Z,41.29
2019-05-25T00:14:51.560Z,41.54
2019-05-25T00:15:16.760Z,41.46
2019-05-25T00:15:41.989Z,41.75
2019-05-25T00:16:07.218Z,41.49
2019-05-25T00:16:31.836Z,41.26
2019-05-25T00:16:57.054Z,41.54
2019-05-25T00:17:22.261Z,41.75
2019-05-25T00:17:47.472Z,41.41
2019-05-25T00:18:12.678Z,41.53
2019-05-25T00:18:37.327Z,41.79
2019-05-25T00:19:02.545Z,41.44
2019-05-25T00:19:27.856Z,41.22
2019-05-25T00:19:53.070Z,41.38
2019-05-25T00:20:18.271Z,41.64
2019-05-25T00:20:42.922Z,41.44
2019-05-25T00:21:08.214Z,41.41
2019-05-25T00:21:33.452Z,41.25
2019-05-25T00:21:58.660Z,41.51
2019-05-25T00:22:23.327Z,41.31
2019-05-25T00:22:48.527Z,41.67
2019-05-25T00:23:13.729Z,41.92
2019-05-25T00:23:38.947Z,41.53
2019-05-25T00:24:12.317Z,41.70
2019-05-25T00:24:30.519Z,41.73
2019-05-25T00:24:55.922Z,41.63
2019-05-25T00:25:21.160Z,41.55
2019-05-25T00:25:46.383Z,41.59
2019-05-25T00:26:11.601Z,41.40
2019-05-25T00:26:36.242Z,41.65
2019-05-25T00:27:01.476Z,41.62
2019-05-25T00:27:26.740Z,41.35
2019-05-25T00:27:51.996Z,41.67
2019-05-25T00:28:17.248Z,41.70
2019-05-25T00:28:41.883Z,41.45
2019-05-25T00:29:07.127Z,41.65
2019-05-25T00:29:32.400Z,41.67
2019-05-25T00:29:57.625Z,41.47
2019-05-25T00:30:22.283Z,41.86
2019-05-25T00:30:47.484Z,41.47
2019-05-25T00:31:12.759Z,41.35
2019-05-25T00:31:39.519Z,41.27
2019-05-25T00:32:04.144Z,41.92
2019-05-25T00:32:29.406Z,41.63
2019-05-25T00:32:54.648Z,41.58
2019-05-25T00:33:19.870Z,41.75
2019-05-25T00:33:44.486Z,41.78
2019-05-25T00:34:09.697Z,41.54
2019-05-25T00:34:34.931Z,41.86
2019-05-25T00:35:00.144Z,41.69
2019-05-25T00:35:25.355Z,41.80
2019-05-25T00:35:50.003Z,41.71
2019-05-25T00:36:15.211Z,41.50
2019-05-25T00:36:40.434Z,41.64
2019-05-25T00:37:05.739Z,41.75
2019-05-25T00:37:30.366Z,41.67
2019-05-25T00:37:55.620Z,41.94
2019-05-25T00:38:20.850Z,41.71
2019-05-25T00:38:46.062Z,41.70
2019-05-25T00:39:11.298Z,42.02
2019-05-25T00:39:36.067Z,41.84
2019-05-25T00:40:01.235Z,42.00
2019-05-25T00:40:26.452Z,41.60
2019-05-25T00:40:51.704Z,41.79
2019-05-25T00:41:16.326Z,42.12
2019-05-25T00:41:41.518Z,41.78
2019-05-25T00:42:06.773Z,41.47
2019-05-25T00:42:31.982Z,41.88
2019-05-25T00:42:57.179Z,41.68
2019-05-25T00:43:21.851Z,41.68
2019-05-25T00:43:47.078Z,41.76
2019-05-25T00:44:12.246Z,41.63
2019-05-25T00:44:37.484Z,41.71
2019-05-25T00:45:02.711Z,41.64
2019-05-25T00:45:27.346Z,41.83
2019-05-25T00:45:52.561Z,42.05
2019-05-25T00:46:17.793Z,41.83
2019-05-25T00:46:43.023Z,42.12
2019-05-25T00:47:08.202Z,41.79
2019-05-25T00:47:32.865Z,42.13
2019-05-25T00:47:58.081Z,41.99
2019-05-25T00:48:23.283Z,41.80
2019-05-25T00:48:48.505Z,41.96
2019-05-25T00:49:13.737Z,42.27
2019-05-25T00:49:38.522Z,42.19
2019-05-25T00:50:04.509Z,42.13
2019-05-25T00:50:29.757Z,42.02
2019-05-25T00:50:55.026Z,41.68
2019-05-25T00:51:19.651Z,41.63
2019-05-25T00:51:44.910Z,41.55
2019-05-25T00:52:10.097Z,41.88
2019-05-25T00:52:35.316Z,42.27
2019-05-25T00:53:00.521Z,41.81
2019-05-25T00:53:25.154Z,42.13
2019-05-25T00:53:50.379Z,41.86
2019-05-25T00:54:27.402Z,42.08
2019-05-25T00:54:42.623Z,41.85
2019-05-25T00:55:07.711Z,41.78
2019-05-25T00:55:32.959Z,41.88
2019-05-25T00:55:58.173Z,42.27
2019-05-25T00:56:23.384Z,42.12
2019-05-25T00:56:48.610Z,41.95
2019-05-25T00:57:13.242Z,42.18
2019-05-25T00:57:38.470Z,42.25
2019-05-25T00:58:03.665Z,42.03
2019-05-25T00:58:28.901Z,42.07
2019-05-25T00:58:54.151Z,42.05
2019-05-25T00:59:18.763Z,42.17
2019-05-25T00:59:44.005Z,42.46
2019-05-25T01:00:09.703Z,42.08
2019-05-25T01:00:34.899Z,42.17
2019-05-25T01:00:59.659Z,42.16
2019-05-25T01:01:24.861Z,41.98
2019-05-25T01:01:50.107Z,42.01
2019-05-25T01:02:15.316Z,41.78
2019-05-25T01:02:40.898Z,42.04
2019-05-25T01:03:06.654Z,42.35
2019-05-25T01:03:31.866Z,41.94
2019-05-25T01:03:57.118Z,42.13
2019-05-25T01:04:21.903Z,42.15
2019-05-25T01:04:47.162Z,42.12
2019-05-25T01:05:12.371Z,42.16
2019-05-25T01:05:37.580Z,42.07
2019-05-25T01:06:02.235Z,42.10
2019-05-25T01:06:27.513Z,42.22
2019-05-25T01:06:52.726Z,42.16
2019-05-25T01:07:17.965Z,42.03
2019-05-25T01:07:43.418Z,41.97
2019-05-25T01:08:08.072Z,42.14
2019-05-25T01:08:33.289Z,42.14
2019-05-25T01:08:58.481Z,42.02
2019-05-25T01:09:23.675Z,42.15
2019-05-25T01:09:48.330Z,42.13
2019-05-25T01:10:13.853Z,41.96
2019-05-25T01:10:39.218Z,42.06
2019-05-25T01:11:04.405Z,42.38
2019-05-25T01:11:29.184Z,42.11
2019-05-25T01:11:54.969Z,42.00
2019-05-25T01:12:20.141Z,42.18
2019-05-25T01:12:45.343Z,42.23
2019-05-25T01:13:10.561Z,42.14
2019-05-25T01:13:35.189Z,42.14
2019-05-25T01:14:01.110Z,42.11
2019-05-25T01:14:26.369Z,42.34
2019-05-25T01:14:51.636Z,42.18
2019-05-25T01:15:16.421Z,42.09
2019-05-25T01:15:41.822Z,42.01
2019-05-25T01:16:07.016Z,42.29
2019-05-25T01:16:32.215Z,42.18
2019-05-25T01:16:57.517Z,42.28
2019-05-25T01:17:22.862Z,42.08
2019-05-25T01:17:48.075Z,42.31
2019-05-25T01:18:13.266Z,42.23
2019-05-25T01:18:38.501Z,42.28
2019-05-25T01:19:03.178Z,42.21
2019-05-25T01:19:28.399Z,42.26
2019-05-25T01:19:53.664Z,42.29
2019-05-25T01:20:20.609Z,42.04
2019-05-25T01:20:45.707Z,42.12
2019-05-25T01:21:10.930Z,42.31
2019-05-25T01:21:36.145Z,42.52
2019-05-25T01:22:01.373Z,42.12
2019-05-25T01:22:26.585Z,42.27
2019-05-25T01:22:51.208Z,42.06
2019-05-25T01:23:16.438Z,42.25
2019-05-25T01:23:41.929Z,42.33
2019-05-25T01:24:07.150Z,42.22
2019-05-25T01:24:44.035Z,42.38
2019-05-25T01:24:58.740Z,42.11
2019-05-25T01:26:04.423Z,42.24
2019-05-25T01:26:29.688Z,42.34
2019-05-25T01:26:54.281Z,42.31
2019-05-25T01:27:19.497Z,42.27
2019-05-25T01:27:44.986Z,42.37
2019-05-25T01:28:10.367Z,42.44
2019-05-25T01:28:37.793Z,42.54
2019-05-25T01:29:01.887Z,42.18
2019-05-25T01:29:27.284Z,42.33
2019-05-25T01:29:52.489Z,42.38
2019-05-25T01:30:17.823Z,42.35
2019-05-25T01:30:42.479Z,42.33
2019-05-25T01:31:07.694Z,42.39
2019-05-25T01:31:33.436Z,42.16
2019-05-25T01:31:58.647Z,42.41
2019-05-25T01:32:23.405Z,42.30
2019-05-25T01:32:48.614Z,42.51
2019-05-25T01:33:13.879Z,42.13
2019-05-25T01:33:39.073Z,42.56
2019-05-25T01:34:04.500Z,42.20
2019-05-25T01:34:29.307Z,42.32
2019-05-25T01:34:54.580Z,42.51
2019-05-25T01:35:19.912Z,42.49
2019-05-25T01:35:45.149Z,42.64
2019-05-25T01:36:10.354Z,42.34
2019-05-25T01:36:34.986Z,42.16
2019-05-25T01:37:00.205Z,42.53
2019-05-25T01:37:25.453Z,42.42
2019-05-25T01:37:50.661Z,42.40
2019-05-25T01:38:15.303Z,42.28
2019-05-25T01:38:40.532Z,42.21
2019-05-25T01:39:07.558Z,42.50
2019-05-25T01:39:32.776Z,42.33
2019-05-25T01:39:57.384Z,42.37
2019-05-25T01:40:22.633Z,42.67
2019-05-25T01:40:47.835Z,42.52
2019-05-25T01:41:13.054Z,42.50
2019-05-25T01:41:38.276Z,42.76
2019-05-25T01:42:02.896Z,42.45
2019-05-25T01:42:28.118Z,42.51
2019-05-25T01:42:53.332Z,42.36
2019-05-25T01:43:18.543Z,42.46
2019-05-25T01:43:43.770Z,42.43
2019-05-25T01:44:08.388Z,42.45
2019-05-25T01:44:33.780Z,42.39
2019-05-25T01:44:59.471Z,42.16
2019-05-25T01:45:24.724Z,42.11
2019-05-25T01:45:49.426Z,42.19
2019-05-25T01:46:15.365Z,42.19
2019-05-25T01:46:40.675Z,42.47
2019-05-25T01:47:05.873Z,42.49
2019-05-25T01:47:30.765Z,42.14
2019-05-25T01:47:55.977Z,42.44
2019-05-25T01:48:21.166Z,42.35
2019-05-25T01:48:46.390Z,42.38
2019-05-25T01:49:11.632Z,42.39
2019-05-25T01:49:36.406Z,42.55
2019-05-25T01:50:01.815Z,42.45
2019-05-25T01:50:27.143Z,42.42
2019-05-25T01:50:52.351Z,42.76
2019-05-25T01:51:17.601Z,42.48
2019-05-25T01:51:42.212Z,42.55
2019-05-25T01:52:07.445Z,42.41
2019-05-25T01:52:33.630Z,42.40
2019-05-25T01:52:59.115Z,42.39
2019-05-25T01:53:23.760Z,42.32
2019-05-25T01:53:48.954Z,42.34
2019-05-25T01:54:14.171Z,42.39
2019-05-25T01:54:39.377Z,42.51
2019-05-25T01:55:05.356Z,42.35
2019-05-25T01:55:30.596Z,42.12
2019-05-25T01:55:55.806Z,42.18
2019-05-25T01:56:21.346Z,42.56
2019-05-25T01:56:46.554Z,42.46
2019-05-25T01:57:11.225Z,42.43
2019-05-25T01:57:36.453Z,42.41
2019-05-25T01:58:01.653Z,42.32
2019-05-25T01:58:26.868Z,42.41
2019-05-25T01:58:52.072Z,42.46
2019-05-25T01:59:16.704Z,42.34
2019-05-25T01:59:41.902Z,42.57
2019-05-25T02:00:07.426Z,42.80
2019-05-25T02:00:32.668Z,42.53
2019-05-25T02:00:57.675Z,42.71
2019-05-25T02:01:23.092Z,42.61
2019-05-25T02:01:48.342Z,42.57
2019-05-25T02:02:14.374Z,42.58
2019-05-25T02:02:39.098Z,42.75
2019-05-25T02:03:04.386Z,42.51
2019-05-25T02:03:30.170Z,42.54
2019-05-25T02:03:55.363Z,42.34
2019-05-25T02:04:20.088Z,42.46
2019-05-25T02:04:45.287Z,42.42
2019-05-25T02:05:10.511Z,42.68
2019-05-25T02:05:35.935Z,42.46
2019-05-25T02:06:00.750Z,42.66
2019-05-25T02:06:25.956Z,42.34
2019-05-25T02:06:51.183Z,42.27
2019-05-25T02:07:16.554Z,42.29
2019-05-25T02:07:41.170Z,42.37
2019-05-25T02:08:06.408Z,42.63
2019-05-25T02:08:31.625Z,42.48
2019-05-25T02:08:57.297Z,42.72
2019-05-25T02:09:22.584Z,42.37
2019-05-25T02:09:47.202Z,42.18
2019-05-25T02:10:15.185Z,42.40
2019-05-25T02:10:40.688Z,42.11
2019-05-25T02:11:05.882Z,42.50
2019-05-25T02:11:30.507Z,43.23
2019-05-25T02:11:55.724Z,42.78
2019-05-25T02:12:20.989Z,42.78
2019-05-25T02:12:46.233Z,42.83
2019-05-25T02:13:11.474Z,42.62
2019-05-25T02:13:36.071Z,42.69
2019-05-25T02:14:01.643Z,42.53
2019-05-25T02:14:26.844Z,42.36
2019-05-25T02:14:52.077Z,42.51
2019-05-25T02:15:16.961Z,42.46
2019-05-25T02:15:42.197Z,42.71
2019-05-25T02:16:07.415Z,42.48
2019-05-25T02:16:32.595Z,42.59
2019-05-25T02:16:57.267Z,42.65
2019-05-25T02:17:22.493Z,42.70
2019-05-25T02:17:47.679Z,42.67
2019-05-25T02:18:12.912Z,42.33
2019-05-25T02:18:38.171Z,42.42
2019-05-25T02:19:02.788Z,42.60
2019-05-25T02:19:27.984Z,42.29
2019-05-25T02:19:53.217Z,42.36
2019-05-25T02:20:18.594Z,42.39
2019-05-25T02:20:43.272Z,42.39
2019-05-25T02:21:08.513Z,42.64
2019-05-25T02:21:33.702Z,42.49
2019-05-25T02:21:58.909Z,42.74
2019-05-25T02:22:24.199Z,42.93
2019-05-25T02:22:48.833Z,42.74
2019-05-25T02:23:14.422Z,42.86
2019-05-25T02:23:39.701Z,42.59
2019-05-25T02:24:04.903Z,42.71
2019-05-25T02:24:29.526Z,42.71
2019-05-25T02:24:54.763Z,42.63
2019-05-25T02:25:20.010Z,42.48
2019-05-25T02:25:45.247Z,42.35
2019-05-25T02:26:10.454Z,42.67
2019-05-25T02:26:35.100Z,42.66
2019-05-25T02:27:00.326Z,42.85
2019-05-25T02:27:25.536Z,42.50
2019-05-25T02:27:50.749Z,42.57
2019-05-25T02:28:15.392Z,42.58
2019-05-25T02:28:40.590Z,42.46
2019-05-25T02:29:05.935Z,42.40
2019-05-25T02:29:31.162Z,42.15
2019-05-25T02:29:56.389Z,42.31
2019-05-25T02:30:24.839Z,42.41
2019-05-25T02:30:50.131Z,42.62
2019-05-25T02:31:15.328Z,42.26
2019-05-25T02:31:40.573Z,42.68
2019-05-25T02:32:05.348Z,42.51
2019-05-25T02:32:30.637Z,42.72
2019-05-25T02:32:56.024Z,42.40
2019-05-25T02:33:21.306Z,42.69
2019-05-25T02:33:46.551Z,42.63
2019-05-25T02:34:11.149Z,42.41
2019-05-25T02:34:36.392Z,42.40
2019-05-25T02:35:01.619Z,42.38
2019-05-25T02:35:27.941Z,42.28
2019-05-25T02:35:52.640Z,42.41
2019-05-25T02:36:20.773Z,42.05
2019-05-25T02:36:44.858Z,42.76
2019-05-25T02:37:10.123Z,42.52
2019-05-25T02:37:34.717Z,42.44
2019-05-25T02:37:59.934Z,42.29
2019-05-25T02:38:25.196Z,42.60
2019-05-25T02:38:50.436Z,42.48
2019-05-25T02:39:15.618Z,42.43
2019-05-25T02:39:40.272Z,42.60
2019-05-25T02:40:08.772Z,42.52
2019-05-25T02:40:33.966Z,42.76
2019-05-25T02:40:59.163Z,43.09
2019-05-25T02:41:23.812Z,42.54
2019-05-25T02:41:49.043Z,42.29
2019-05-25T02:42:14.419Z,42.20
2019-05-25T02:42:39.659Z,42.32
2019-05-25T02:43:04.490Z,42.00
2019-05-25T02:43:29.937Z,42.07
2019-05-25T02:43:55.137Z,42.31
2019-05-25T02:44:20.337Z,42.38
2019-05-25T02:44:45.582Z,42.08
2019-05-25T02:45:10.198Z,42.36
2019-05-25T02:45:35.843Z,42.50
2019-05-25T02:46:01.064Z,42.36
2019-05-25T02:46:26.297Z,42.59
2019-05-25T02:46:51.508Z,42.41
2019-05-25T02:47:16.120Z,42.43
2019-05-25T02:47:41.340Z,42.24
2019-05-25T02:48:06.563Z,42.47
2019-05-25T02:48:31.757Z,42.26
2019-05-25T02:48:56.374Z,42.26
2019-05-25T02:49:21.736Z,43.08
2019-05-25T02:49:46.976Z,42.39
2019-05-25T02:50:12.670Z,42.57
2019-05-25T02:50:37.270Z,42.42
2019-05-25T02:51:02.516Z,42.39
2019-05-25T02:51:27.744Z,42.63
2019-05-25T02:51:52.955Z,42.37
2019-05-25T02:52:18.172Z,42.08
2019-05-25T02:52:42.874Z,42.51
2019-05-25T02:53:08.081Z,42.67
2019-05-25T02:53:33.299Z,42.54
2019-05-25T02:53:58.512Z,41.89
2019-05-25T02:54:23.725Z,42.08
2019-05-25T02:54:48.377Z,42.13
2019-05-25T02:55:14.523Z,42.12
2019-05-25T02:55:39.825Z,41.82
2019-05-25T02:56:05.030Z,41.86
2019-05-25T02:56:29.831Z,42.12
2019-05-25T02:56:55.086Z,42.26
2019-05-25T02:57:20.468Z,42.48
2019-05-25T02:57:45.638Z,41.91
2019-05-25T02:58:10.325Z,42.18
2019-05-25T02:58:35.583Z,42.21
2019-05-25T02:59:00.827Z,42.26
2019-05-25T02:59:26.067Z,42.65
2019-05-25T02:59:51.327Z,42.16
2019-05-25T03:00:16.206Z,42.39
2019-05-25T03:00:41.430Z,42.67
2019-05-25T03:01:06.624Z,42.78
2019-05-25T03:01:31.859Z,42.63
2019-05-25T03:01:56.560Z,42.59
2019-05-25T03:02:21.817Z,42.82
2019-05-25T03:02:47.415Z,42.20
2019-05-25T03:03:12.877Z,42.27
2019-05-25T03:03:37.665Z,42.74
2019-05-25T03:04:02.874Z,42.60
2019-05-25T03:04:28.104Z,43.00
2019-05-25T03:04:53.316Z,42.73
2019-05-25T03:05:18.571Z,42.71
2019-05-25T03:05:43.245Z,42.33
2019-05-25T03:06:08.520Z,43.06
2019-05-25T03:06:33.883Z,42.75
2019-05-25T03:06:59.119Z,42.96
2019-05-25T03:07:24.330Z,42.63
2019-05-25T03:07:48.956Z,42.49
2019-05-25T03:08:14.682Z,42.61
2019-05-25T03:08:39.910Z,42.54
2019-05-25T03:09:07.339Z,42.13
2019-05-25T03:09:31.969Z,42.37
2019-05-25T03:09:57.231Z,42.13
2019-05-25T03:10:22.438Z,42.43
2019-05-25T03:10:48.520Z,42.43
2019-05-25T03:11:14.109Z,42.23
2019-05-25T03:11:39.905Z,42.15
2019-05-25T03:12:05.120Z,42.51
2019-05-25T03:12:30.361Z,42.69
2019-05-25T03:12:56.537Z,42.30
2019-05-25T03:13:21.717Z,41.84
2019-05-25T03:13:46.946Z,42.18
2019-05-25T03:14:12.161Z,42.30
2019-05-25T03:14:37.360Z,42.48
2019-05-25T03:15:02.237Z,42.04
2019-05-25T03:15:27.648Z,42.10
2019-05-25T03:15:52.898Z,42.66
2019-05-25T03:16:18.189Z,42.33
2019-05-25T03:16:42.868Z,42.39
2019-05-25T03:17:08.145Z,43.03
2019-05-25T03:17:33.378Z,42.49
2019-05-25T03:17:58.655Z,42.39
2019-05-25T03:18:23.528Z,42.86
2019-05-25T03:18:48.760Z,42.54
2019-05-25T03:19:14.821Z,42.26
2019-05-25T03:19:40.022Z,42.32
2019-05-25T03:20:07.641Z,42.23
2019-05-25T03:20:32.823Z,42.18
2019-05-25T03:20:58.123Z,42.23
2019-05-25T03:21:23.396Z,42.29
2019-05-25T03:21:48.679Z,42.01
2019-05-25T03:22:14.195Z,42.13
2019-05-25T03:22:39.413Z,42.32
2019-05-25T03:23:04.596Z,42.03
2019-05-25T03:23:29.810Z,41.89
2019-05-25T03:23:54.790Z,42.18
2019-05-25T03:24:20.055Z,42.05
2019-05-25T03:24:45.291Z,42.69
2019-05-25T03:25:10.471Z,41.94
2019-05-25T03:25:48.504Z,41.95
2019-05-25T03:26:02.368Z,41.98
2019-05-25T03:26:27.580Z,41.92
2019-05-25T03:26:52.862Z,42.16
2019-05-25T03:27:18.056Z,42.28
2019-05-25T03:27:43.372Z,42.54
2019-05-25T03:28:08.091Z,42.41
2019-05-25T03:28:33.297Z,42.45
2019-05-25T03:28:58.522Z,41.99
2019-05-25T03:29:23.760Z,42.37
2019-05-25T03:29:48.377Z,42.14
2019-05-25T03:30:14.349Z,42.10
2019-05-25T03:30:39.545Z,42.53
2019-05-25T03:31:04.765Z,42.59
2019-05-25T03:31:29.404Z,42.46
2019-05-25T03:31:54.813Z,42.11
2019-05-25T03:32:20.575Z,42.43
2019-05-25T03:32:45.785Z,42.33
2019-05-25T03:33:10.410Z,42.55
2019-05-25T03:33:35.639Z,41.95
2019-05-25T03:34:00.863Z,41.96
2019-05-25T03:34:26.140Z,42.01
2019-05-25T03:34:51.364Z,42.01
2019-05-25T03:35:15.989Z,41.96
2019-05-25T03:35:41.197Z,42.11
2019-05-25T03:36:06.403Z,43.09
2019-05-25T03:36:31.703Z,42.18
2019-05-25T03:36:56.343Z,42.76
2019-05-25T03:37:21.586Z,42.56
2019-05-25T03:37:46.829Z,42.88
2019-05-25T03:38:12.003Z,42.21
2019-05-25T03:38:37.203Z,42.49
2019-05-25T03:39:01.831Z,42.37
2019-05-25T03:39:27.821Z,42.48
2019-05-25T03:39:53.062Z,42.36
2019-05-25T03:40:18.290Z,42.52
2019-05-25T03:40:42.902Z,42.49
2019-05-25T03:41:08.102Z,42.20
2019-05-25T03:41:33.332Z,42.77
2019-05-25T03:41:58.533Z,42.44
2019-05-25T03:42:23.761Z,42.43
2019-05-25T03:42:48.394Z,42.63
2019-05-25T03:43:13.756Z,42.56
2019-05-25T03:43:38.945Z,42.41
2019-05-25T03:44:04.132Z,42.51
2019-05-25T03:44:29.346Z,42.67
2019-05-25T03:44:53.974Z,42.43
2019-05-25T03:45:19.181Z,42.13
2019-05-25T03:45:44.381Z,42.57
2019-05-25T03:46:09.639Z,42.56
2019-05-25T03:46:34.247Z,42.27
2019-05-25T03:46:59.496Z,42.43
2019-05-25T03:47:24.722Z,42.56
2019-05-25T03:47:49.926Z,42.38
2019-05-25T03:48:15.139Z,42.60
2019-05-25T03:48:39.756Z,42.64
2019-05-25T03:49:04.950Z,42.86
2019-05-25T03:49:30.142Z,42.72
2019-05-25T03:49:55.385Z,42.72
2019-05-25T03:50:20.274Z,42.71
2019-05-25T03:50:45.516Z,42.35
2019-05-25T03:51:10.767Z,42.85
2019-05-25T03:51:35.934Z,42.44
2019-05-25T03:52:01.156Z,42.40
2019-05-25T03:52:25.906Z,42.60
2019-05-25T03:52:51.108Z,42.24
2019-05-25T03:53:16.332Z,42.32
2019-05-25T03:53:41.562Z,42.27
2019-05-25T03:54:06.180Z,42.63
2019-05-25T03:54:31.384Z,42.19
2019-05-25T03:54:56.619Z,42.85
2019-05-25T03:55:21.844Z,43.11
2019-05-25T03:55:47.056Z,42.77
2019-05-25T03:56:11.702Z,42.21
2019-05-25T03:56:36.911Z,42.48
2019-05-25T03:57:02.374Z,42.72
2019-05-25T03:57:27.635Z,42.13
2019-05-25T03:57:52.278Z,42.50
2019-05-25T03:58:17.501Z,42.67
2019-05-25T03:58:42.788Z,42.47
2019-05-25T03:59:08.026Z,42.58
2019-05-25T03:59:33.257Z,42.65
2019-05-25T03:59:57.878Z,42.32
2019-05-25T04:00:37.142Z,42.68
2019-05-25T04:01:02.548Z,42.60
2019-05-25T04:01:27.852Z,42.25
2019-05-25T04:01:52.521Z,42.24
2019-05-25T04:02:17.781Z,42.51
2019-05-25T04:02:43.101Z,42.79
2019-05-25T04:03:08.389Z,42.70
2019-05-25T04:03:33.566Z,42.38
2019-05-25T04:03:58.244Z,42.72
2019-05-25T04:04:23.450Z,42.62
2019-05-25T04:04:48.665Z,42.46
2019-05-25T04:05:14.990Z,42.39
2019-05-25T04:05:39.654Z,42.82
2019-05-25T04:06:04.899Z,42.77
2019-05-25T04:06:30.116Z,42.83
2019-05-25T04:06:55.313Z,42.68
2019-05-25T04:07:20.524Z,42.64
2019-05-25T04:07:45.195Z,42.38
2019-05-25T04:08:10.403Z,42.88
2019-05-25T04:08:35.674Z,42.67
2019-05-25T04:09:00.932Z,42.92
2019-05-25T04:09:25.537Z,42.74
2019-05-25T04:09:50.732Z,42.63
2019-05-25T04:10:15.972Z,42.38
2019-05-25T04:10:41.212Z,42.29
2019-05-25T04:11:06.496Z,42.71
2019-05-25T04:11:31.118Z,42.57
2019-05-25T04:11:56.314Z,42.85
2019-05-25T04:12:21.508Z,42.92
2019-05-25T04:12:46.764Z,42.54
2019-05-25T04:13:11.385Z,42.51
2019-05-25T04:13:36.583Z,42.85
2019-05-25T04:14:01.800Z,42.74
2019-05-25T04:14:27.026Z,42.83
2019-05-25T04:14:52.253Z,42.83
2019-05-25T04:15:16.847Z,42.97
2019-05-25T04:15:42.095Z,42.91
2019-05-25T04:16:07.289Z,42.48
2019-05-25T04:16:32.494Z,42.60
2019-05-25T04:16:57.224Z,42.73
2019-05-25T04:17:22.415Z,42.90
2019-05-25T04:17:47.675Z,42.70
2019-05-25T04:18:12.875Z,42.67
2019-05-25T04:18:38.086Z,42.69
2019-05-25T04:19:02.723Z,42.35
2019-05-25T04:19:27.962Z,42.38
2019-05-25T04:19:53.167Z,42.58
2019-05-25T04:20:18.392Z,42.71
2019-05-25T04:20:43.640Z,42.50
2019-05-25T04:21:08.341Z,42.65
2019-05-25T04:21:33.544Z,42.78
2019-05-25T04:21:58.725Z,42.29
2019-05-25T04:22:23.950Z,42.70
2019-05-25T04:22:49.181Z,42.71
2019-05-25T04:23:14.297Z,42.85
2019-05-25T04:23:39.499Z,42.81
2019-05-25T04:24:05.394Z,42.59
2019-05-25T04:24:30.660Z,42.74
2019-05-25T04:24:55.300Z,43.10
2019-05-25T04:25:20.536Z,42.86
2019-05-25T04:25:45.759Z,42.76
2019-05-25T04:26:21.928Z,42.71
2019-05-25T04:26:37.331Z,43.00
2019-05-25T04:27:02.815Z,42.74
2019-05-25T04:27:28.029Z,43.03
2019-05-25T04:27:53.323Z,42.68
2019-05-25T04:28:18.623Z,42.82
2019-05-25T04:28:43.253Z,42.83
2019-05-25T04:29:08.451Z,42.97
2019-05-25T04:29:33.671Z,43.10
2019-05-25T04:29:58.954Z,42.74
2019-05-25T04:30:24.193Z,42.86
2019-05-25T04:30:48.833Z,42.72
2019-05-25T04:31:14.858Z,42.97
2019-05-25T04:31:40.063Z,42.98
2019-05-25T04:32:05.277Z,42.75
2019-05-25T04:32:29.889Z,42.82
2019-05-25T04:32:55.145Z,42.72
2019-05-25T04:33:20.392Z,42.79
2019-05-25T04:33:45.622Z,42.92
2019-05-25T04:34:10.220Z,42.77
2019-05-25T04:34:35.446Z,42.67
2019-05-25T04:35:00.775Z,42.95
2019-05-25T04:35:25.986Z,43.10
2019-05-25T04:35:51.192Z,42.97
2019-05-25T04:36:15.819Z,42.87
2019-05-25T04:36:41.068Z,42.54
2019-05-25T04:37:06.258Z,42.78
2019-05-25T04:37:31.475Z,42.62
2019-05-25T04:37:56.703Z,42.67
2019-05-25T04:38:21.325Z,42.92
2019-05-25T04:38:46.553Z,42.90
2019-05-25T04:39:11.744Z,42.74
2019-05-25T04:39:36.926Z,42.83
2019-05-25T04:40:02.159Z,43.35
2019-05-25T04:40:26.791Z,43.05
2019-05-25T04:40:51.980Z,43.43
2019-05-25T04:41:17.185Z,43.13
2019-05-25T04:41:42.460Z,43.36
2019-05-25T04:42:07.669Z,43.27
2019-05-25T04:42:32.276Z,42.72
2019-05-25T04:42:57.504Z,42.87
2019-05-25T04:43:22.729Z,42.95
2019-05-25T04:43:47.930Z,42.88
2019-05-25T04:44:13.126Z,42.26
2019-05-25T04:44:37.771Z,42.70
2019-05-25T04:45:02.958Z,43.33
2019-05-25T04:45:28.165Z,42.65
2019-05-25T04:45:53.496Z,42.90
2019-05-25T04:46:21.557Z,42.64
2019-05-25T04:46:45.086Z,42.80
2019-05-25T04:47:25.885Z,42.37
2019-05-25T04:47:37.286Z,42.52
2019-05-25T04:48:02.517Z,42.57
2019-05-25T04:48:27.164Z,42.98
2019-05-25T04:48:52.367Z,42.72
2019-05-25T04:49:17.571Z,42.80
2019-05-25T04:49:42.798Z,42.76
2019-05-25T04:50:07.492Z,43.37
2019-05-25T04:50:32.713Z,43.77
2019-05-25T04:50:57.961Z,43.28
2019-05-25T04:51:23.157Z,42.73
2019-05-25T04:51:48.380Z,42.48
2019-05-25T04:52:13.109Z,42.54
2019-05-25T04:52:41.219Z,42.36
2019-05-25T04:53:05.240Z,42.45
2019-05-25T04:53:30.439Z,42.58
2019-05-25T04:53:55.107Z,43.06
2019-05-25T04:54:20.318Z,42.62
2019-05-25T04:54:45.536Z,42.74
2019-05-25T04:55:10.854Z,42.72
2019-05-25T04:55:35.628Z,43.33
2019-05-25T04:56:00.847Z,43.11
2019-05-25T04:56:39.009Z,43.38
2019-05-25T04:56:53.003Z,42.40
2019-05-25T04:57:17.663Z,42.65
2019-05-25T04:57:42.873Z,42.46
2019-05-25T04:58:08.089Z,42.88
2019-05-25T04:58:33.311Z,42.76
2019-05-25T04:58:58.572Z,42.44
2019-05-25T04:59:23.189Z,42.91
2019-05-25T04:59:48.411Z,42.89
2019-05-25T05:00:13.773Z,42.51
2019-05-25T05:00:38.974Z,42.72
2019-05-25T05:01:04.149Z,42.70
2019-05-25T05:01:28.787Z,42.77
2019-05-25T05:01:53.999Z,42.69
2019-05-25T05:02:19.198Z,42.46
2019-05-25T05:02:45.744Z,43.13
2019-05-25T05:03:10.413Z,42.57
2019-05-25T05:03:35.636Z,42.46
2019-05-25T05:04:01.641Z,42.63
2019-05-25T05:04:26.970Z,42.80
2019-05-25T05:04:51.609Z,42.64
2019-05-25T05:05:16.820Z,42.88
2019-05-25T05:05:42.061Z,43.06
2019-05-25T05:06:07.331Z,43.44
2019-05-25T05:06:32.546Z,43.07
2019-05-25T05:06:57.232Z,42.87
2019-05-25T05:07:22.551Z,43.25
2019-05-25T05:07:47.784Z,43.12
2019-05-25T05:08:13.301Z,42.57
2019-05-25T05:08:38.498Z,42.67
2019-05-25T05:09:03.178Z,42.58
2019-05-25T05:09:28.649Z,42.74
2019-05-25T05:10:02.302Z,43.38
2019-05-25T05:10:20.770Z,43.23
2019-05-25T05:10:45.403Z,43.14
2019-05-25T05:11:10.606Z,42.99
2019-05-25T05:11:35.826Z,43.24
2019-05-25T05:12:01.602Z,42.70
2019-05-25T05:12:26.224Z,42.47
2019-05-25T05:12:51.445Z,42.97
2019-05-25T05:13:16.656Z,42.69
2019-05-25T05:13:41.943Z,43.24
2019-05-25T05:14:07.162Z,42.60
2019-05-25T05:14:31.843Z,42.57
2019-05-25T05:14:57.107Z,42.48
2019-05-25T05:15:22.309Z,42.69
2019-05-25T05:15:47.548Z,42.88
2019-05-25T05:16:12.150Z,43.21
2019-05-25T05:16:37.374Z,43.00
2019-05-25T05:17:02.582Z,42.80
2019-05-25T05:17:27.810Z,42.47
2019-05-25T05:17:53.045Z,42.49
2019-05-25T05:18:17.647Z,42.46
2019-05-25T05:18:42.891Z,42.73
2019-05-25T05:19:08.165Z,42.42
2019-05-25T05:19:33.406Z,42.44
2019-05-25T05:19:58.634Z,42.20
2019-05-25T05:20:23.304Z,42.13
2019-05-25T05:20:48.505Z,42.79
2019-05-25T05:21:13.724Z,42.57
2019-05-25T05:21:38.990Z,43.06
2019-05-25T05:22:05.877Z,42.89
2019-05-25T05:22:30.621Z,42.55
2019-05-25T05:22:55.589Z,42.42
2019-05-25T05:23:20.813Z,43.24
2019-05-25T05:23:46.099Z,42.56
2019-05-25T05:24:11.374Z,42.49
2019-05-25T05:24:36.070Z,42.58
2019-05-25T05:25:01.279Z,43.13
2019-05-25T05:25:26.569Z,42.48